sensor_id;sensor_type;location;lat;lon;timestamp;P1;durP1;ratioP1;P2;durP2;ratioP2
84738;SDS011;74969;44.836;-0.586;2024-01-15T00:01:16;63.67;;;38.80;;
84738;SDS011;74969;44.836;-0.586;2024-01-15T00:03:42;57.50;;;36.92;;
84738;SDS011;74969;44.836;-0.586;2024-01-15T00:06:08;61.07;;;37.23;;
84738;SDS011;74969;44.836;-0.586;2024-01-15T00:08:33;59.78;;;36.38;;
84738;SDS011;74969;44.836;-0.586;2024-01-15T00:10:59;58.47;;;36.70;;
84738;SDS011;74969;44.836;-0.586;2024-01-15T00:13:25;60.13;;;35.80;;
84738;SDS011;74969;44.836;-0.586;2024-01-15T00:15:50;57.37;;;37.73;;
84738;SDS011;74969;44.836;-0.586;2024-01-15T00:18:16;55.60;;;35.15;;
84738;SDS011;74969;44.836;-0.586;2024-01-15T00:20:42;57.57;;;35.77;;
84738;SDS011;74969;44.836;-0.586;2024-01-15T00:23:07;56.92;;;35.17;;
84738;SDS011;74969;44.836;-0.586;2024-01-15T00:25:33;54.00;;;34.53;;
84738;SDS011;74969;44.836;-0.586;2024-01-15T00:27:59;53.43;;;35.77;;
84738;SDS011;74969;44.836;-0.586;2024-01-15T00:30:24;53.67;;;33.58;;
84738;SDS011;74969;44.836;-0.586;2024-01-15T00:32:50;49.30;;;32.10;;
84738;SDS011;74969;44.836;-0.586;2024-01-15T00:35:15;55.85;;;35.35;;
84738;SDS011;74969;44.836;-0.586;2024-01-15T00:37:41;52.80;;;34.27;;
84738;SDS011;74969;44.836;-0.586;2024-01-15T00:40:07;53.13;;;33.70;;
84738;SDS011;74969;44.836;-0.586;2024-01-15T00:42:33;57.47;;;35.60;;
84738;SDS011;74969;44.836;-0.586;2024-01-15T00:44:59;51.70;;;33.00;;
84738;SDS011;74969;44.836;-0.586;2024-01-15T00:47:25;54.40;;;35.33;;
84738;SDS011;74969;44.836;-0.586;2024-01-15T00:49:51;53.40;;;36.03;;
84738;SDS011;74969;44.836;-0.586;2024-01-15T00:52:16;54.60;;;35.42;;
84738;SDS011;74969;44.836;-0.586;2024-01-15T00:54:42;50.30;;;33.13;;
84738;SDS011;74969;44.836;-0.586;2024-01-15T00:57:08;53.53;;;34.63;;
84738;SDS011;74969;44.836;-0.586;2024-01-15T00:59:33;53.65;;;35.20;;
84738;SDS011;74969;44.836;-0.586;2024-01-15T01:01:59;55.60;;;35.30;;
84738;SDS011;74969;44.836;-0.586;2024-01-15T01:04:25;57.00;;;35.20;;
84738;SDS011;74969;44.836;-0.586;2024-01-15T01:06:50;57.43;;;37.03;;
84738;SDS011;74969;44.836;-0.586;2024-01-15T01:09:16;55.97;;;35.55;;
84738;SDS011;74969;44.836;-0.586;2024-01-15T01:11:41;54.93;;;35.17;;
84738;SDS011;74969;44.836;-0.586;2024-01-15T01:14:07;53.45;;;34.60;;
84738;SDS011;74969;44.836;-0.586;2024-01-15T01:16:33;48.63;;;32.67;;
84738;SDS011;74969;44.836;-0.586;2024-01-15T01:19:04;51.55;;;33.97;;
84738;SDS011;74969;44.836;-0.586;2024-01-15T01:21:31;49.42;;;32.78;;
84738;SDS011;74969;44.836;-0.586;2024-01-15T01:23:57;52.47;;;32.42;;
84738;SDS011;74969;44.836;-0.586;2024-01-15T01:26:23;53.53;;;33.43;;
84738;SDS011;74969;44.836;-0.586;2024-01-15T01:28:49;52.73;;;34.93;;
84738;SDS011;74969;44.836;-0.586;2024-01-15T01:31:15;49.53;;;33.03;;
84738;SDS011;74969;44.836;-0.586;2024-01-15T01:33:41;52.83;;;33.70;;
84738;SDS011;74969;44.836;-0.586;2024-01-15T01:36:10;53.80;;;34.58;;
84738;SDS011;74969;44.836;-0.586;2024-01-15T01:38:36;53.73;;;34.53;;
84738;SDS011;74969;44.836;-0.586;2024-01-15T01:41:02;53.55;;;34.50;;
84738;SDS011;74969;44.836;-0.586;2024-01-15T01:43:28;57.85;;;37.00;;
84738;SDS011;74969;44.836;-0.586;2024-01-15T01:45:54;57.57;;;35.63;;
84738;SDS011;74969;44.836;-0.586;2024-01-15T01:48:21;49.95;;;33.50;;
84738;SDS011;74969;44.836;-0.586;2024-01-15T01:50:48;52.38;;;34.45;;
84738;SDS011;74969;44.836;-0.586;2024-01-15T01:53:14;49.70;;;33.45;;
84738;SDS011;74969;44.836;-0.586;2024-01-15T01:55:40;49.70;;;32.78;;
84738;SDS011;74969;44.836;-0.586;2024-01-15T01:58:06;48.40;;;32.67;;
84738;SDS011;74969;44.836;-0.586;2024-01-15T02:00:32;49.78;;;31.75;;
84738;SDS011;74969;44.836;-0.586;2024-01-15T02:03:00;49.10;;;32.17;;
84738;SDS011;74969;44.836;-0.586;2024-01-15T02:05:28;49.10;;;31.02;;
84738;SDS011;74969;44.836;-0.586;2024-01-15T02:07:55;51.65;;;31.42;;
84738;SDS011;74969;44.836;-0.586;2024-01-15T02:10:21;46.88;;;30.98;;
84738;SDS011;74969;44.836;-0.586;2024-01-15T02:12:46;47.17;;;31.30;;
84738;SDS011;74969;44.836;-0.586;2024-01-15T02:15:13;52.75;;;34.05;;
84738;SDS011;74969;44.836;-0.586;2024-01-15T02:20:24;52.23;;;33.30;;
84738;SDS011;74969;44.836;-0.586;2024-01-15T02:22:51;51.50;;;33.58;;
84738;SDS011;74969;44.836;-0.586;2024-01-15T02:25:17;54.15;;;36.45;;
84738;SDS011;74969;44.836;-0.586;2024-01-15T02:27:43;52.28;;;35.28;;
84738;SDS011;74969;44.836;-0.586;2024-01-15T02:30:12;50.28;;;35.80;;
84738;SDS011;74969;44.836;-0.586;2024-01-15T02:32:39;52.80;;;34.97;;
84738;SDS011;74969;44.836;-0.586;2024-01-15T02:35:04;52.50;;;36.22;;
84738;SDS011;74969;44.836;-0.586;2024-01-15T02:37:30;46.50;;;31.50;;
84738;SDS011;74969;44.836;-0.586;2024-01-15T02:39:56;47.15;;;31.20;;
84738;SDS011;74969;44.836;-0.586;2024-01-15T02:42:21;45.93;;;29.87;;
84738;SDS011;74969;44.836;-0.586;2024-01-15T02:44:47;43.92;;;28.45;;
84738;SDS011;74969;44.836;-0.586;2024-01-15T02:47:14;39.90;;;27.63;;
84738;SDS011;74969;44.836;-0.586;2024-01-15T02:49:39;44.57;;;28.47;;
84738;SDS011;74969;44.836;-0.586;2024-01-15T02:52:05;43.30;;;30.02;;
84738;SDS011;74969;44.836;-0.586;2024-01-15T02:54:31;44.67;;;28.65;;
84738;SDS011;74969;44.836;-0.586;2024-01-15T02:56:57;43.43;;;30.00;;
84738;SDS011;74969;44.836;-0.586;2024-01-15T02:59:22;43.50;;;27.40;;
84738;SDS011;74969;44.836;-0.586;2024-01-15T03:01:48;38.93;;;25.10;;
84738;SDS011;74969;44.836;-0.586;2024-01-15T03:04:14;30.33;;;21.43;;
84738;SDS011;74969;44.836;-0.586;2024-01-15T03:06:39;36.40;;;20.83;;
84738;SDS011;74969;44.836;-0.586;2024-01-15T03:09:05;30.63;;;21.07;;
84738;SDS011;74969;44.836;-0.586;2024-01-15T03:11:36;34.28;;;22.48;;
84738;SDS011;74969;44.836;-0.586;2024-01-15T03:14:05;34.00;;;22.23;;
84738;SDS011;74969;44.836;-0.586;2024-01-15T03:16:31;29.73;;;21.00;;
84738;SDS011;74969;44.836;-0.586;2024-01-15T03:18:56;35.88;;;22.70;;
84738;SDS011;74969;44.836;-0.586;2024-01-15T03:21:22;31.00;;;20.57;;
84738;SDS011;74969;44.836;-0.586;2024-01-15T03:23:48;33.43;;;21.63;;
84738;SDS011;74969;44.836;-0.586;2024-01-15T03:26:13;33.83;;;21.55;;
84738;SDS011;74969;44.836;-0.586;2024-01-15T03:28:39;32.58;;;21.38;;
84738;SDS011;74969;44.836;-0.586;2024-01-15T03:31:05;31.60;;;21.17;;
84738;SDS011;74969;44.836;-0.586;2024-01-15T03:33:30;33.47;;;21.93;;
84738;SDS011;74969;44.836;-0.586;2024-01-15T03:35:56;32.60;;;22.00;;
84738;SDS011;74969;44.836;-0.586;2024-01-15T03:38:22;33.33;;;22.33;;
84738;SDS011;74969;44.836;-0.586;2024-01-15T03:40:48;31.98;;;22.80;;
84738;SDS011;74969;44.836;-0.586;2024-01-15T03:43:14;30.60;;;22.00;;
84738;SDS011;74969;44.836;-0.586;2024-01-15T03:45:40;34.50;;;23.38;;
84738;SDS011;74969;44.836;-0.586;2024-01-15T03:48:05;30.70;;;20.60;;
84738;SDS011;74969;44.836;-0.586;2024-01-15T03:50:31;35.08;;;22.58;;
84738;SDS011;74969;44.836;-0.586;2024-01-15T03:52:57;33.30;;;22.30;;
84738;SDS011;74969;44.836;-0.586;2024-01-15T03:55:22;34.40;;;22.60;;
84738;SDS011;74969;44.836;-0.586;2024-01-15T03:57:48;31.83;;;22.23;;
84738;SDS011;74969;44.836;-0.586;2024-01-15T04:00:14;31.33;;;21.40;;
84738;SDS011;74969;44.836;-0.586;2024-01-15T04:02:42;29.88;;;21.63;;
84738;SDS011;74969;44.836;-0.586;2024-01-15T04:05:09;31.25;;;22.23;;
84738;SDS011;74969;44.836;-0.586;2024-01-15T04:07:35;35.38;;;23.15;;
84738;SDS011;74969;44.836;-0.586;2024-01-15T04:10:00;28.93;;;21.03;;
84738;SDS011;74969;44.836;-0.586;2024-01-15T04:12:26;31.77;;;21.55;;
84738;SDS011;74969;44.836;-0.586;2024-01-15T04:14:52;33.23;;;22.70;;
84738;SDS011;74969;44.836;-0.586;2024-01-15T04:17:17;31.38;;;21.83;;
84738;SDS011;74969;44.836;-0.586;2024-01-15T04:19:43;31.48;;;21.70;;
84738;SDS011;74969;44.836;-0.586;2024-01-15T04:22:09;34.33;;;23.65;;
84738;SDS011;74969;44.836;-0.586;2024-01-15T04:24:35;32.77;;;23.73;;
84738;SDS011;74969;44.836;-0.586;2024-01-15T04:27:00;31.77;;;20.50;;
84738;SDS011;74969;44.836;-0.586;2024-01-15T04:29:26;33.30;;;22.10;;
84738;SDS011;74969;44.836;-0.586;2024-01-15T04:31:52;34.57;;;21.50;;
84738;SDS011;74969;44.836;-0.586;2024-01-15T04:34:18;30.65;;;20.92;;
84738;SDS011;74969;44.836;-0.586;2024-01-15T04:36:44;34.28;;;22.58;;
84738;SDS011;74969;44.836;-0.586;2024-01-15T04:39:09;29.58;;;22.23;;
84738;SDS011;74969;44.836;-0.586;2024-01-15T04:41:36;32.65;;;21.15;;
84738;SDS011;74969;44.836;-0.586;2024-01-15T04:44:02;28.50;;;20.40;;
84738;SDS011;74969;44.836;-0.586;2024-01-15T04:46:28;29.77;;;21.23;;
84738;SDS011;74969;44.836;-0.586;2024-01-15T04:48:54;32.13;;;21.87;;
84738;SDS011;74969;44.836;-0.586;2024-01-15T04:51:19;29.13;;;19.48;;
84738;SDS011;74969;44.836;-0.586;2024-01-15T04:53:45;31.93;;;21.00;;
84738;SDS011;74969;44.836;-0.586;2024-01-15T04:56:10;30.08;;;20.23;;
84738;SDS011;74969;44.836;-0.586;2024-01-15T04:58:36;28.23;;;18.67;;
84738;SDS011;74969;44.836;-0.586;2024-01-15T05:01:02;30.58;;;20.55;;
84738;SDS011;74969;44.836;-0.586;2024-01-15T05:03:28;30.13;;;20.65;;
84738;SDS011;74969;44.836;-0.586;2024-01-15T05:05:54;28.08;;;19.55;;
84738;SDS011;74969;44.836;-0.586;2024-01-15T05:08:20;28.00;;;18.83;;
84738;SDS011;74969;44.836;-0.586;2024-01-15T05:10:46;27.45;;;18.88;;
84738;SDS011;74969;44.836;-0.586;2024-01-15T05:13:12;28.42;;;19.48;;
84738;SDS011;74969;44.836;-0.586;2024-01-15T05:15:38;30.20;;;19.23;;
84738;SDS011;74969;44.836;-0.586;2024-01-15T05:18:04;30.40;;;19.45;;
84738;SDS011;74969;44.836;-0.586;2024-01-15T05:20:29;29.70;;;18.30;;
84738;SDS011;74969;44.836;-0.586;2024-01-15T05:22:55;28.63;;;19.30;;
84738;SDS011;74969;44.836;-0.586;2024-01-15T05:25:21;29.42;;;19.40;;
84738;SDS011;74969;44.836;-0.586;2024-01-15T05:27:47;31.37;;;20.70;;
84738;SDS011;74969;44.836;-0.586;2024-01-15T05:30:13;27.42;;;18.98;;
84738;SDS011;74969;44.836;-0.586;2024-01-15T05:32:39;26.23;;;18.70;;
84738;SDS011;74969;44.836;-0.586;2024-01-15T05:35:05;29.67;;;20.07;;
84738;SDS011;74969;44.836;-0.586;2024-01-15T05:37:31;25.83;;;17.77;;
84738;SDS011;74969;44.836;-0.586;2024-01-15T05:39:57;25.40;;;17.23;;
84738;SDS011;74969;44.836;-0.586;2024-01-15T05:42:22;28.55;;;19.00;;
84738;SDS011;74969;44.836;-0.586;2024-01-15T05:44:48;24.20;;;16.97;;
84738;SDS011;74969;44.836;-0.586;2024-01-15T05:47:14;28.92;;;19.10;;
84738;SDS011;74969;44.836;-0.586;2024-01-15T05:49:39;25.43;;;18.00;;
84738;SDS011;74969;44.836;-0.586;2024-01-15T05:52:05;27.80;;;18.70;;
84738;SDS011;74969;44.836;-0.586;2024-01-15T05:54:31;29.03;;;19.17;;
84738;SDS011;74969;44.836;-0.586;2024-01-15T05:56:57;27.05;;;18.70;;
84738;SDS011;74969;44.836;-0.586;2024-01-15T05:59:22;33.83;;;18.17;;
84738;SDS011;74969;44.836;-0.586;2024-01-15T06:01:48;26.98;;;18.48;;
84738;SDS011;74969;44.836;-0.586;2024-01-15T06:04:14;28.17;;;17.87;;
84738;SDS011;74969;44.836;-0.586;2024-01-15T06:06:39;25.30;;;17.08;;
84738;SDS011;74969;44.836;-0.586;2024-01-15T06:09:05;23.70;;;16.70;;
84738;SDS011;74969;44.836;-0.586;2024-01-15T06:11:31;28.83;;;18.30;;
84738;SDS011;74969;44.836;-0.586;2024-01-15T06:13:57;25.30;;;16.83;;
84738;SDS011;74969;44.836;-0.586;2024-01-15T06:16:23;23.90;;;16.08;;
84738;SDS011;74969;44.836;-0.586;2024-01-15T06:18:49;26.97;;;17.60;;
84738;SDS011;74969;44.836;-0.586;2024-01-15T06:21:15;27.80;;;18.45;;
84738;SDS011;74969;44.836;-0.586;2024-01-15T06:23:41;26.42;;;17.98;;
84738;SDS011;74969;44.836;-0.586;2024-01-15T06:26:06;28.70;;;18.83;;
84738;SDS011;74969;44.836;-0.586;2024-01-15T06:28:32;23.50;;;16.92;;
84738;SDS011;74969;44.836;-0.586;2024-01-15T06:30:58;26.43;;;18.33;;
84738;SDS011;74969;44.836;-0.586;2024-01-15T06:33:24;27.17;;;18.90;;
84738;SDS011;74969;44.836;-0.586;2024-01-15T06:35:50;26.87;;;16.90;;
84738;SDS011;74969;44.836;-0.586;2024-01-15T06:38:16;25.85;;;17.65;;
84738;SDS011;74969;44.836;-0.586;2024-01-15T06:40:41;26.35;;;16.45;;
84738;SDS011;74969;44.836;-0.586;2024-01-15T06:43:10;25.20;;;15.93;;
84738;SDS011;74969;44.836;-0.586;2024-01-15T06:45:37;25.53;;;17.37;;
84738;SDS011;74969;44.836;-0.586;2024-01-15T06:48:03;25.15;;;17.58;;
84738;SDS011;74969;44.836;-0.586;2024-01-15T06:50:29;28.77;;;18.80;;
84738;SDS011;74969;44.836;-0.586;2024-01-15T06:52:55;26.77;;;17.43;;
84738;SDS011;74969;44.836;-0.586;2024-01-15T06:55:20;25.65;;;17.52;;
84738;SDS011;74969;44.836;-0.586;2024-01-15T06:57:46;28.60;;;18.90;;
84738;SDS011;74969;44.836;-0.586;2024-01-15T07:00:12;27.13;;;17.50;;
84738;SDS011;74969;44.836;-0.586;2024-01-15T07:02:38;26.70;;;17.48;;
84738;SDS011;74969;44.836;-0.586;2024-01-15T07:05:03;28.00;;;17.90;;
84738;SDS011;74969;44.836;-0.586;2024-01-15T07:07:30;27.30;;;18.07;;
84738;SDS011;74969;44.836;-0.586;2024-01-15T07:09:56;26.83;;;18.90;;
84738;SDS011;74969;44.836;-0.586;2024-01-15T07:12:22;30.35;;;18.63;;
84738;SDS011;74969;44.836;-0.586;2024-01-15T07:14:48;26.87;;;17.47;;
84738;SDS011;74969;44.836;-0.586;2024-01-15T07:17:14;29.48;;;19.30;;
84738;SDS011;74969;44.836;-0.586;2024-01-15T07:19:40;28.75;;;18.98;;
84738;SDS011;74969;44.836;-0.586;2024-01-15T07:22:06;32.97;;;20.40;;
84738;SDS011;74969;44.836;-0.586;2024-01-15T07:24:32;32.90;;;19.27;;
84738;SDS011;74969;44.836;-0.586;2024-01-15T07:27:01;32.70;;;21.77;;
84738;SDS011;74969;44.836;-0.586;2024-01-15T07:29:26;31.77;;;20.27;;
84738;SDS011;74969;44.836;-0.586;2024-01-15T07:31:52;33.80;;;18.77;;
84738;SDS011;74969;44.836;-0.586;2024-01-15T07:34:18;38.15;;;22.15;;
84738;SDS011;74969;44.836;-0.586;2024-01-15T07:36:44;31.30;;;19.60;;
84738;SDS011;74969;44.836;-0.586;2024-01-15T07:39:10;35.88;;;20.73;;
84738;SDS011;74969;44.836;-0.586;2024-01-15T07:41:36;34.78;;;19.77;;
84738;SDS011;74969;44.836;-0.586;2024-01-15T07:44:02;33.00;;;18.55;;
84738;SDS011;74969;44.836;-0.586;2024-01-15T07:46:29;32.33;;;20.20;;
84738;SDS011;74969;44.836;-0.586;2024-01-15T07:48:55;37.35;;;20.67;;
84738;SDS011;74969;44.836;-0.586;2024-01-15T07:51:23;33.22;;;21.30;;
84738;SDS011;74969;44.836;-0.586;2024-01-15T07:54:07;32.47;;;19.57;;
84738;SDS011;74969;44.836;-0.586;2024-01-15T07:56:32;41.88;;;23.73;;
84738;SDS011;74969;44.836;-0.586;2024-01-15T07:58:58;45.20;;;23.23;;
84738;SDS011;74969;44.836;-0.586;2024-01-15T08:01:24;36.67;;;20.67;;
84738;SDS011;74969;44.836;-0.586;2024-01-15T08:03:50;36.95;;;22.23;;
84738;SDS011;74969;44.836;-0.586;2024-01-15T08:06:17;38.50;;;20.87;;
84738;SDS011;74969;44.836;-0.586;2024-01-15T08:08:43;37.95;;;20.88;;
84738;SDS011;74969;44.836;-0.586;2024-01-15T08:11:08;42.23;;;23.20;;
84738;SDS011;74969;44.836;-0.586;2024-01-15T08:13:34;40.17;;;21.77;;
84738;SDS011;74969;44.836;-0.586;2024-01-15T08:16:02;44.23;;;22.03;;
84738;SDS011;74969;44.836;-0.586;2024-01-15T08:18:28;40.40;;;21.45;;
84738;SDS011;74969;44.836;-0.586;2024-01-15T08:20:54;44.63;;;23.27;;
84738;SDS011;74969;44.836;-0.586;2024-01-15T08:23:20;39.95;;;20.17;;
84738;SDS011;74969;44.836;-0.586;2024-01-15T08:25:46;37.67;;;18.87;;
84738;SDS011;74969;44.836;-0.586;2024-01-15T08:28:12;36.58;;;20.23;;
84738;SDS011;74969;44.836;-0.586;2024-01-15T08:30:40;36.50;;;19.45;;
84738;SDS011;74969;44.836;-0.586;2024-01-15T08:33:06;44.43;;;21.53;;
84738;SDS011;74969;44.836;-0.586;2024-01-15T08:35:32;37.97;;;20.27;;
84738;SDS011;74969;44.836;-0.586;2024-01-15T08:38:03;48.00;;;21.33;;
84738;SDS011;74969;44.836;-0.586;2024-01-15T08:40:29;37.73;;;19.47;;
84738;SDS011;74969;44.836;-0.586;2024-01-15T08:42:55;43.67;;;22.15;;
84738;SDS011;74969;44.836;-0.586;2024-01-15T08:45:21;40.97;;;20.33;;
84738;SDS011;74969;44.836;-0.586;2024-01-15T08:47:48;42.15;;;23.27;;
84738;SDS011;74969;44.836;-0.586;2024-01-15T08:50:14;47.35;;;22.65;;
84738;SDS011;74969;44.836;-0.586;2024-01-15T08:52:39;43.67;;;21.33;;
84738;SDS011;74969;44.836;-0.586;2024-01-15T08:55:05;38.15;;;20.05;;
84738;SDS011;74969;44.836;-0.586;2024-01-15T08:57:32;36.35;;;19.23;;
84738;SDS011;74969;44.836;-0.586;2024-01-15T08:59:58;41.27;;;20.90;;
84738;SDS011;74969;44.836;-0.586;2024-01-15T09:02:24;45.28;;;22.60;;
84738;SDS011;74969;44.836;-0.586;2024-01-15T09:04:50;42.37;;;21.03;;
84738;SDS011;74969;44.836;-0.586;2024-01-15T09:07:15;42.08;;;21.60;;
84738;SDS011;74969;44.836;-0.586;2024-01-15T09:09:41;38.57;;;21.73;;
84738;SDS011;74969;44.836;-0.586;2024-01-15T09:12:07;40.38;;;21.25;;
84738;SDS011;74969;44.836;-0.586;2024-01-15T09:14:33;40.95;;;22.65;;
84738;SDS011;74969;44.836;-0.586;2024-01-15T09:16:59;39.93;;;21.50;;
84738;SDS011;74969;44.836;-0.586;2024-01-15T09:19:25;35.67;;;20.15;;
84738;SDS011;74969;44.836;-0.586;2024-01-15T09:21:50;41.10;;;22.53;;
84738;SDS011;74969;44.836;-0.586;2024-01-15T09:24:16;37.53;;;20.25;;
84738;SDS011;74969;44.836;-0.586;2024-01-15T09:26:41;38.17;;;21.60;;
84738;SDS011;74969;44.836;-0.586;2024-01-15T09:29:07;39.67;;;20.83;;
84738;SDS011;74969;44.836;-0.586;2024-01-15T09:31:33;33.38;;;19.38;;
84738;SDS011;74969;44.836;-0.586;2024-01-15T09:33:58;46.03;;;22.13;;
84738;SDS011;74969;44.836;-0.586;2024-01-15T09:36:25;35.47;;;20.40;;
84738;SDS011;74969;44.836;-0.586;2024-01-15T09:38:51;39.40;;;21.52;;
84738;SDS011;74969;44.836;-0.586;2024-01-15T09:41:17;43.00;;;22.00;;
84738;SDS011;74969;44.836;-0.586;2024-01-15T09:43:43;51.20;;;22.80;;
84738;SDS011;74969;44.836;-0.586;2024-01-15T09:46:09;34.60;;;20.83;;
84738;SDS011;74969;44.836;-0.586;2024-01-15T09:48:36;39.08;;;21.08;;
84738;SDS011;74969;44.836;-0.586;2024-01-15T09:51:03;39.50;;;22.75;;
84738;SDS011;74969;44.836;-0.586;2024-01-15T09:53:30;38.33;;;21.73;;
84738;SDS011;74969;44.836;-0.586;2024-01-15T09:55:57;39.25;;;20.75;;
84738;SDS011;74969;44.836;-0.586;2024-01-15T09:58:23;47.77;;;25.53;;
84738;SDS011;74969;44.836;-0.586;2024-01-15T10:00:49;34.78;;;20.35;;
84738;SDS011;74969;44.836;-0.586;2024-01-15T10:03:16;42.60;;;24.65;;
84738;SDS011;74969;44.836;-0.586;2024-01-15T10:05:43;37.85;;;22.15;;
84738;SDS011;74969;44.836;-0.586;2024-01-15T10:08:09;44.00;;;23.83;;
84738;SDS011;74969;44.836;-0.586;2024-01-15T10:10:36;41.15;;;22.63;;
84738;SDS011;74969;44.836;-0.586;2024-01-15T10:13:03;39.30;;;21.13;;
84738;SDS011;74969;44.836;-0.586;2024-01-15T10:15:30;38.28;;;22.05;;
84738;SDS011;74969;44.836;-0.586;2024-01-15T10:17:59;37.25;;;22.60;;
84738;SDS011;74969;44.836;-0.586;2024-01-15T10:20:25;44.63;;;22.93;;
84738;SDS011;74969;44.836;-0.586;2024-01-15T10:22:53;34.97;;;20.67;;
84738;SDS011;74969;44.836;-0.586;2024-01-15T10:25:20;43.53;;;24.23;;
84738;SDS011;74969;44.836;-0.586;2024-01-15T10:28:03;37.50;;;20.73;;
84738;SDS011;74969;44.836;-0.586;2024-01-15T10:30:30;34.35;;;21.75;;
84738;SDS011;74969;44.836;-0.586;2024-01-15T10:32:57;42.95;;;24.85;;
84738;SDS011;74969;44.836;-0.586;2024-01-15T10:35:26;39.60;;;22.17;;
84738;SDS011;74969;44.836;-0.586;2024-01-15T10:38:01;51.38;;;27.92;;
84738;SDS011;74969;44.836;-0.586;2024-01-15T10:40:28;43.00;;;23.77;;
84738;SDS011;74969;44.836;-0.586;2024-01-15T10:42:54;43.75;;;23.83;;
84738;SDS011;74969;44.836;-0.586;2024-01-15T10:45:20;42.63;;;24.67;;
84738;SDS011;74969;44.836;-0.586;2024-01-15T10:47:46;48.47;;;26.90;;
84738;SDS011;74969;44.836;-0.586;2024-01-15T10:50:13;45.87;;;24.70;;
84738;SDS011;74969;44.836;-0.586;2024-01-15T10:52:40;39.28;;;23.55;;
84738;SDS011;74969;44.836;-0.586;2024-01-15T10:55:07;40.42;;;23.80;;
84738;SDS011;74969;44.836;-0.586;2024-01-15T10:57:37;40.30;;;23.23;;
84738;SDS011;74969;44.836;-0.586;2024-01-15T11:00:06;43.67;;;25.17;;
84738;SDS011;74969;44.836;-0.586;2024-01-15T11:02:34;45.05;;;24.77;;
84738;SDS011;74969;44.836;-0.586;2024-01-15T11:05:01;37.08;;;22.85;;
84738;SDS011;74969;44.836;-0.586;2024-01-15T11:07:28;41.75;;;25.27;;
84738;SDS011;74969;44.836;-0.586;2024-01-15T11:09:56;42.80;;;23.60;;
84738;SDS011;74969;44.836;-0.586;2024-01-15T11:12:23;45.20;;;23.17;;
84738;SDS011;74969;44.836;-0.586;2024-01-15T11:14:50;38.08;;;23.08;;
84738;SDS011;74969;44.836;-0.586;2024-01-15T11:17:16;40.42;;;23.50;;
84738;SDS011;74969;44.836;-0.586;2024-01-15T11:19:44;40.50;;;21.85;;
84738;SDS011;74969;44.836;-0.586;2024-01-15T11:24:55;41.45;;;23.75;;
84738;SDS011;74969;44.836;-0.586;2024-01-15T11:27:42;41.65;;;24.10;;
84738;SDS011;74969;44.836;-0.586;2024-01-15T11:30:10;44.00;;;23.65;;
84738;SDS011;74969;44.836;-0.586;2024-01-15T11:32:37;42.30;;;24.27;;
84738;SDS011;74969;44.836;-0.586;2024-01-15T11:35:06;41.55;;;24.52;;
84738;SDS011;74969;44.836;-0.586;2024-01-15T11:40:22;44.53;;;25.92;;
84738;SDS011;74969;44.836;-0.586;2024-01-15T11:43:09;50.40;;;26.70;;
84738;SDS011;74969;44.836;-0.586;2024-01-15T11:45:35;46.57;;;25.80;;
84738;SDS011;74969;44.836;-0.586;2024-01-15T11:48:11;40.00;;;24.02;;
84738;SDS011;74969;44.836;-0.586;2024-01-15T11:50:45;40.13;;;23.15;;
84738;SDS011;74969;44.836;-0.586;2024-01-15T11:56:21;41.55;;;23.27;;
84738;SDS011;74969;44.836;-0.586;2024-01-15T11:58:48;45.57;;;23.30;;
84738;SDS011;74969;44.836;-0.586;2024-01-15T12:01:15;38.60;;;24.42;;
84738;SDS011;74969;44.836;-0.586;2024-01-15T12:03:42;40.97;;;23.20;;
84738;SDS011;74969;44.836;-0.586;2024-01-15T12:06:09;38.78;;;23.42;;
84738;SDS011;74969;44.836;-0.586;2024-01-15T12:08:36;42.78;;;24.50;;
84738;SDS011;74969;44.836;-0.586;2024-01-15T12:11:05;36.17;;;22.57;;
84738;SDS011;74969;44.836;-0.586;2024-01-15T12:13:35;40.75;;;25.02;;
84738;SDS011;74969;44.836;-0.586;2024-01-15T12:16:01;41.80;;;23.83;;
84738;SDS011;74969;44.836;-0.586;2024-01-15T12:18:29;42.42;;;24.70;;
84738;SDS011;74969;44.836;-0.586;2024-01-15T12:20:55;44.35;;;23.27;;
84738;SDS011;74969;44.836;-0.586;2024-01-15T12:23:20;39.00;;;24.37;;
84738;SDS011;74969;44.836;-0.586;2024-01-15T12:25:46;38.05;;;22.05;;
84738;SDS011;74969;44.836;-0.586;2024-01-15T12:28:12;34.00;;;21.45;;
84738;SDS011;74969;44.836;-0.586;2024-01-15T12:30:38;39.25;;;23.00;;
84738;SDS011;74969;44.836;-0.586;2024-01-15T12:33:04;41.13;;;24.25;;
84738;SDS011;74969;44.836;-0.586;2024-01-15T12:35:31;37.70;;;23.15;;
84738;SDS011;74969;44.836;-0.586;2024-01-15T12:37:59;43.35;;;24.38;;
84738;SDS011;74969;44.836;-0.586;2024-01-15T12:40:27;42.25;;;25.10;;
84738;SDS011;74969;44.836;-0.586;2024-01-15T12:42:53;39.97;;;24.02;;
84738;SDS011;74969;44.836;-0.586;2024-01-15T12:45:18;38.13;;;24.17;;
84738;SDS011;74969;44.836;-0.586;2024-01-15T12:47:44;43.13;;;24.98;;
84738;SDS011;74969;44.836;-0.586;2024-01-15T12:50:11;40.27;;;24.40;;
84738;SDS011;74969;44.836;-0.586;2024-01-15T12:52:40;49.50;;;29.60;;
84738;SDS011;74969;44.836;-0.586;2024-01-15T12:55:06;41.38;;;26.17;;
84738;SDS011;74969;44.836;-0.586;2024-01-15T12:57:36;42.25;;;25.10;;
84738;SDS011;74969;44.836;-0.586;2024-01-15T13:00:02;44.85;;;26.63;;
84738;SDS011;74969;44.836;-0.586;2024-01-15T13:02:47;42.03;;;25.57;;
84738;SDS011;74969;44.836;-0.586;2024-01-15T13:05:14;46.65;;;27.38;;
84738;SDS011;74969;44.836;-0.586;2024-01-15T13:07:42;49.90;;;28.13;;
84738;SDS011;74969;44.836;-0.586;2024-01-15T13:10:08;45.53;;;28.05;;
84738;SDS011;74969;44.836;-0.586;2024-01-15T13:12:34;45.30;;;26.97;;
84738;SDS011;74969;44.836;-0.586;2024-01-15T13:15:00;47.13;;;28.13;;
84738;SDS011;74969;44.836;-0.586;2024-01-15T13:17:29;48.33;;;28.75;;
84738;SDS011;74969;44.836;-0.586;2024-01-15T13:19:54;45.73;;;27.43;;
84738;SDS011;74969;44.836;-0.586;2024-01-15T13:22:20;45.43;;;26.67;;
84738;SDS011;74969;44.836;-0.586;2024-01-15T13:24:46;49.40;;;28.00;;
84738;SDS011;74969;44.836;-0.586;2024-01-15T13:28:11;46.22;;;27.15;;
84738;SDS011;74969;44.836;-0.586;2024-01-15T13:30:38;48.53;;;27.08;;
84738;SDS011;74969;44.836;-0.586;2024-01-15T13:33:03;46.28;;;26.60;;
84738;SDS011;74969;44.836;-0.586;2024-01-15T13:35:30;55.83;;;28.55;;
84738;SDS011;74969;44.836;-0.586;2024-01-15T13:37:56;43.63;;;25.20;;
84738;SDS011;74969;44.836;-0.586;2024-01-15T13:40:23;54.90;;;29.60;;
84738;SDS011;74969;44.836;-0.586;2024-01-15T13:42:48;48.07;;;27.17;;
84738;SDS011;74969;44.836;-0.586;2024-01-15T13:45:16;48.42;;;26.75;;
84738;SDS011;74969;44.836;-0.586;2024-01-15T13:47:42;51.33;;;28.20;;
84738;SDS011;74969;44.836;-0.586;2024-01-15T13:50:10;52.03;;;28.13;;
84738;SDS011;74969;44.836;-0.586;2024-01-15T13:52:36;53.20;;;28.60;;
84738;SDS011;74969;44.836;-0.586;2024-01-15T13:55:02;50.30;;;29.10;;
84738;SDS011;74969;44.836;-0.586;2024-01-15T13:57:28;56.90;;;31.42;;
84738;SDS011;74969;44.836;-0.586;2024-01-15T13:59:54;57.63;;;28.08;;
84738;SDS011;74969;44.836;-0.586;2024-01-15T14:02:20;49.92;;;29.05;;
84738;SDS011;74969;44.836;-0.586;2024-01-15T14:04:46;52.40;;;29.33;;
84738;SDS011;74969;44.836;-0.586;2024-01-15T14:07:12;56.47;;;31.00;;
84738;SDS011;74969;44.836;-0.586;2024-01-15T14:09:37;61.70;;;32.10;;
84738;SDS011;74969;44.836;-0.586;2024-01-15T14:12:03;52.45;;;29.73;;
84738;SDS011;74969;44.836;-0.586;2024-01-15T14:14:29;50.72;;;31.30;;
84738;SDS011;74969;44.836;-0.586;2024-01-15T14:16:55;59.97;;;34.07;;